Time,TemperatureF,DewpointF,PressureIn,WindDirection,WindDirectionDegrees,WindSpeedMPH,WindSpeedGustMPH,Humidity,HourlyPrecipIn,Conditions,Clouds,dailyrainin,SolarRadiationWatts/m^2,SoftwareType,DateUTC
2013-05-21 00:01:00,51.0,48.0,-100.00,SW,226,0.0,0.0,91,0.00,,,0.00,1.000000,,2013-05-21 07:01:00,
2013-05-21 00:32:00,51.0,48.0,-100.00,SSW,201,0.0,4.0,90,0.00,,,0.00,1.000000,,2013-05-21 07:32:00,
2013-05-21 00:42:00,51.0,48.0,-100.00,SSW,201,0.0,4.0,90,0.00,,,0.00,1.000000,,2013-05-21 07:42:00,
2013-05-21 00:52:00,51.0,48.0,-100.00,SSW,201,0.0,4.0,90,0.00,,,0.00,1.000000,,2013-05-21 07:52:00,
2013-05-21 01:01:00,51.0,48.0,-100.00,SSW,201,0.0,4.0,90,0.00,,,0.00,1.000000,,2013-05-21 08:01:00,
2013-05-21 02:33:00,48.0,48.0,-100.00,SSW,193,4.0,7.0,100,-99.99,,,0.01,2.000000,,2013-05-21 09:33:00,
2013-05-21 02:42:00,48.0,48.0,-100.00,SSW,193,4.0,7.0,100,-99.99,,,0.01,2.000000,,2013-05-21 09:42:00,
2013-05-21 02:53:00,48.0,48.0,-100.00,SSW,193,4.0,7.0,100,-99.99,,,0.01,2.000000,,2013-05-21 09:53:00,
2013-05-21 03:02:00,48.0,48.0,-100.00,SSW,193,4.0,7.0,100,-99.99,,,0.01,2.000000,,2013-05-21 10:02:00,
2013-05-21 03:33:00,48.0,48.0,-100.00,South,191,4.0,8.0,100,0.00,,,0.01,2.000000,,2013-05-21 10:33:00,
2013-05-21 03:42:00,48.0,48.0,-100.00,South,191,4.0,8.0,100,0.00,,,0.01,2.000000,,2013-05-21 10:42:00,
2013-05-21 03:52:00,48.0,48.0,-100.00,South,191,4.0,8.0,100,0.00,,,0.01,2.000000,,2013-05-21 10:52:00,
2013-05-21 04:02:00,48.0,48.0,-100.00,South,191,4.0,8.0,100,0.00,,,0.01,2.000000,,2013-05-21 11:02:00,
2013-05-21 04:32:00,48.0,48.0,-100.00,South,191,6.0,10.0,100,0.01,,,0.02,2.000000,,2013-05-21 11:32:00,
2013-05-21 04:42:00,48.0,48.0,-100.00,South,191,6.0,10.0,100,0.01,,,0.02,2.000000,,2013-05-21 11:42:00,
2013-05-21 04:52:00,48.0,48.0,-100.00,South,191,6.0,10.0,100,0.01,,,0.02,2.000000,,2013-05-21 11:52:00,
2013-05-21 05:01:00,48.0,48.0,-100.00,South,191,6.0,10.0,100,0.01,,,0.02,2.000000,,2013-05-21 12:01:00,
2013-05-21 05:32:00,48.0,48.0,-100.00,SSE,149,2.0,9.0,100,0.05,,,0.07,2.000000,,2013-05-21 12:32:00,
2013-05-21 05:42:00,48.0,48.0,-100.00,SSE,149,2.0,9.0,100,0.05,,,0.07,2.000000,,2013-05-21 12:42:00,
2013-05-21 05:52:00,48.0,48.0,-100.00,SSE,149,2.0,9.0,100,0.05,,,0.07,2.000000,,2013-05-21 12:52:00,
2013-05-21 06:01:00,48.0,48.0,-100.00,SSE,149,2.0,9.0,100,0.05,,,0.07,2.000000,,2013-05-21 13:01:00,
2013-05-21 06:22:00,49.0,49.0,-100.00,SE,137,0.0,6.0,100,0.05,,,-99.99,2.000000,,2013-05-21 13:22:00,
2013-05-21 06:32:00,49.0,49.0,-100.00,SE,137,0.0,6.0,100,0.05,,,-99.99,2.000000,,2013-05-21 13:32:00,
2013-05-21 06:42:00,49.0,49.0,-100.00,SE,137,0.0,6.0,100,0.05,,,-99.99,2.000000,,2013-05-21 13:42:00,
2013-05-21 06:52:00,49.0,49.0,-100.00,SE,137,0.0,6.0,100,0.05,,,-99.99,2.000000,,2013-05-21 13:52:00,
2013-05-21 07:01:00,49.0,49.0,-100.00,SE,137,0.0,6.0,100,0.05,,,-99.99,2.000000,,2013-05-21 14:01:00,
2013-05-21 07:32:00,48.0,48.0,-100.00,SE,146,1.0,7.0,100,0.01,,,0.13,23.000000,,2013-05-21 14:32:00,
2013-05-21 07:42:00,48.0,48.0,-100.00,SE,146,1.0,7.0,100,0.01,,,0.13,23.000000,,2013-05-21 14:42:00,
2013-05-21 07:52:00,48.0,48.0,-100.00,SE,146,1.0,7.0,100,0.01,,,0.13,23.000000,,2013-05-21 14:52:00,
2013-05-21 08:01:00,48.0,48.0,-100.00,SE,146,1.0,7.0,100,0.01,,,0.13,23.000000,,2013-05-21 15:01:00,
2013-05-21 09:32:00,50.0,50.0,-100.00,SSW,200,9.0,16.0,100,-99.99,,,0.24,57.000000,,2013-05-21 16:32:00,
2013-05-21 09:42:00,50.0,50.0,-100.00,SSW,200,9.0,16.0,100,-99.99,,,0.24,57.000000,,2013-05-21 16:42:00,
2013-05-21 09:52:00,50.0,50.0,-100.00,SSW,200,9.0,16.0,100,-99.99,,,0.24,57.000000,,2013-05-21 16:52:00,
2013-05-21 10:02:00,50.0,50.0,-100.00,SSW,200,9.0,16.0,100,-99.99,,,0.24,57.000000,,2013-05-21 17:02:00,
2013-05-21 10:33:00,48.0,48.0,-100.00,North,7,5.0,16.0,100,0.18,,,0.42,140.000000,,2013-05-21 17:33:00,
2013-05-21 10:44:00,48.0,48.0,-100.00,North,7,5.0,16.0,100,0.18,,,0.42,140.000000,,2013-05-21 17:44:00,
2013-05-21 10:52:00,48.0,48.0,-100.00,North,7,5.0,16.0,100,0.18,,,0.42,140.000000,,2013-05-21 17:52:00,
2013-05-21 11:01:00,48.0,48.0,-100.00,North,7,5.0,16.0,100,0.18,,,0.42,140.000000,,2013-05-21 18:01:00,
2013-05-21 11:32:00,48.0,48.0,-100.00,NNW,340,14.0,26.0,100,0.06,,,0.48,127.000000,,2013-05-21 18:32:00,
2013-05-21 11:42:00,48.0,48.0,-100.00,NNW,340,14.0,26.0,100,0.06,,,0.48,127.000000,,2013-05-21 18:42:00,
2013-05-21 11:52:00,48.0,48.0,-100.00,NNW,340,14.0,26.0,100,0.06,,,0.48,127.000000,,2013-05-21 18:52:00,
2013-05-21 12:01:00,48.0,48.0,-100.00,NNW,340,14.0,26.0,100,0.06,,,0.48,127.000000,,2013-05-21 19:01:00,
2013-05-21 12:22:00,45.0,44.0,-100.00,NNW,330,13.0,28.0,98,0.07,,,-99.99,104.000000,,2013-05-21 19:22:00,
2013-05-21 12:32:00,45.0,44.0,-100.00,NNW,330,13.0,28.0,98,0.07,,,-99.99,104.000000,,2013-05-21 19:32:00,
2013-05-21 12:42:00,45.0,44.0,-100.00,NNW,330,13.0,28.0,98,0.07,,,-99.99,104.000000,,2013-05-21 19:42:00,
2013-05-21 12:52:00,45.0,44.0,-100.00,NNW,330,13.0,28.0,98,0.07,,,-99.99,104.000000,,2013-05-21 19:52:00,
2013-05-21 13:03:00,45.0,44.0,-100.00,NNW,330,13.0,28.0,98,0.07,,,-99.99,104.000000,,2013-05-21 20:03:00,
2013-05-21 13:32:00,47.0,47.0,-100.00,NNW,330,9.0,22.0,100,0.08,,,0.63,93.000000,,2013-05-21 20:32:00,
2013-05-21 13:42:00,47.0,47.0,-100.00,NNW,330,9.0,22.0,100,0.08,,,0.63,93.000000,,2013-05-21 20:42:00,
2013-05-21 13:52:00,47.0,47.0,-100.00,NNW,330,9.0,22.0,100,0.08,,,0.63,93.000000,,2013-05-21 20:52:00,
2013-05-21 14:01:00,47.0,47.0,-100.00,NNW,330,9.0,22.0,100,0.08,,,0.63,93.000000,,2013-05-21 21:01:00,
2013-05-21 14:33:00,47.0,46.0,-100.00,ENE,66,4.0,18.0,96,0.07,,,-99.99,179.000000,,2013-05-21 21:33:00,
2013-05-21 14:43:00,47.0,46.0,-100.00,ENE,66,4.0,18.0,96,0.07,,,-99.99,179.000000,,2013-05-21 21:43:00,
2013-05-21 14:54:00,47.0,46.0,-100.00,ENE,66,4.0,18.0,96,0.07,,,-99.99,179.000000,,2013-05-21 21:54:00,
2013-05-21 15:02:00,47.0,46.0,-100.00,ENE,66,4.0,18.0,96,0.07,,,-99.99,179.000000,,2013-05-21 22:02:00,
2013-05-21 15:23:00,46.0,44.0,-100.00,NW,319,10.0,21.0,92,0.05,,,0.75,237.000000,,2013-05-21 22:23:00,
2013-05-21 15:33:00,46.0,44.0,-100.00,NW,319,10.0,21.0,92,0.05,,,0.75,237.000000,,2013-05-21 22:33:00,
2013-05-21 15:42:00,46.0,44.0,-100.00,NW,319,10.0,21.0,92,0.05,,,0.75,237.000000,,2013-05-21 22:42:00,
2013-05-21 15:52:00,46.0,44.0,-100.00,NW,319,10.0,21.0,92,0.05,,,0.75,237.000000,,2013-05-21 22:52:00,
2013-05-21 16:02:00,46.0,44.0,-100.00,NW,319,10.0,21.0,92,0.05,,,0.75,237.000000,,2013-05-21 23:02:00,
2013-05-21 16:32:00,48.0,43.0,-100.00,NW,325,8.0,27.0,84,0.01,,,0.76,266.000000,,2013-05-21 23:32:00,
2013-05-21 16:42:00,48.0,43.0,-100.00,NW,325,8.0,27.0,84,0.01,,,0.76,266.000000,,2013-05-21 23:42:00,
2013-05-21 16:52:00,48.0,43.0,-100.00,NW,325,8.0,27.0,84,0.01,,,0.76,266.000000,,2013-05-21 23:52:00,
2013-05-21 17:01:00,48.0,43.0,-100.00,NW,325,8.0,27.0,84,0.01,,,0.76,266.000000,,2013-05-22 00:01:00,
2013-05-21 17:32:00,52.0,45.0,-100.00,NW,322,9.0,21.0,76,0.00,,,0.76,567.000000,,2013-05-22 00:32:00,
2013-05-21 17:42:00,52.0,45.0,-100.00,NW,322,9.0,21.0,76,0.00,,,0.76,567.000000,,2013-05-22 00:42:00,
2013-05-21 17:52:00,52.0,45.0,-100.00,NW,322,9.0,21.0,76,0.00,,,0.76,567.000000,,2013-05-22 00:52:00,
2013-05-21 18:01:00,52.0,45.0,-100.00,NW,322,9.0,21.0,76,0.00,,,0.76,567.000000,,2013-05-22 01:01:00,
2013-05-21 18:32:00,52.0,41.0,-100.00,NW,321,7.0,19.0,65,0.00,,,0.76,543.000000,,2013-05-22 01:32:00,
2013-05-21 18:42:00,52.0,41.0,-100.00,NW,321,7.0,19.0,65,0.00,,,0.76,543.000000,,2013-05-22 01:42:00,
2013-05-21 18:52:00,52.0,41.0,-100.00,NW,321,7.0,19.0,65,0.00,,,0.76,543.000000,,2013-05-22 01:52:00,
2013-05-21 19:01:00,52.0,41.0,-100.00,NW,321,7.0,19.0,65,0.00,,,0.76,543.000000,,2013-05-22 02:01:00,
2013-05-21 19:32:00,50.0,40.0,-100.00,NW,320,5.0,16.0,69,0.00,,,0.76,320.000000,,2013-05-22 02:32:00,
2013-05-21 19:42:00,50.0,40.0,-100.00,NW,320,5.0,16.0,69,0.00,,,0.76,320.000000,,2013-05-22 02:42:00,
2013-05-21 19:52:00,50.0,40.0,-100.00,NW,320,5.0,16.0,69,0.00,,,0.76,320.000000,,2013-05-22 02:52:00,
2013-05-21 20:01:00,50.0,40.0,-100.00,NW,320,5.0,16.0,69,0.00,,,0.76,320.000000,,2013-05-22 03:01:00,
2013-05-21 20:33:00,45.0,37.0,-100.00,NW,309,2.0,19.0,73,0.00,,,0.76,102.000000,,2013-05-22 03:33:00,
2013-05-21 20:43:00,45.0,37.0,-100.00,NW,309,2.0,19.0,73,0.00,,,0.76,102.000000,,2013-05-22 03:43:00,
2013-05-21 20:53:00,45.0,37.0,-100.00,NW,309,2.0,19.0,73,0.00,,,0.76,102.000000,,2013-05-22 03:53:00,
2013-05-21 21:03:00,45.0,37.0,-100.00,NW,309,2.0,19.0,73,0.00,,,0.76,102.000000,,2013-05-22 04:03:00,
2013-05-21 21:33:00,46.0,39.0,-100.00,NW,318,6.0,14.0,75,0.00,,,0.76,9.000000,,2013-05-22 04:33:00,
2013-05-21 21:43:00,46.0,39.0,-100.00,NW,318,6.0,14.0,75,0.00,,,0.76,9.000000,,2013-05-22 04:43:00,
2013-05-21 21:53:00,46.0,39.0,-100.00,NW,318,6.0,14.0,75,0.00,,,0.76,9.000000,,2013-05-22 04:53:00,
2013-05-21 22:02:00,46.0,39.0,-100.00,NW,318,6.0,14.0,75,0.00,,,0.76,9.000000,,2013-05-22 05:02:00,
2013-05-21 22:22:00,47.0,39.0,-100.00,East,99,5.0,11.0,75,0.00,,,0.76,2.000000,,2013-05-22 05:22:00,
2013-05-21 22:32:00,47.0,39.0,-100.00,East,99,5.0,11.0,75,0.00,,,0.76,2.000000,,2013-05-22 05:32:00,
2013-05-21 22:42:00,47.0,39.0,-100.00,East,99,5.0,11.0,75,0.00,,,0.76,2.000000,,2013-05-22 05:42:00,
2013-05-21 22:52:00,47.0,39.0,-100.00,East,99,5.0,11.0,75,0.00,,,0.76,2.000000,,2013-05-22 05:52:00,
2013-05-21 23:01:00,47.0,39.0,-100.00,East,99,5.0,11.0,75,0.00,,,0.76,2.000000,,2013-05-22 06:01:00,
2013-05-21 23:32:00,45.0,41.0,-100.00,SSE,157,6.0,15.0,86,0.01,,,0.77,1.000000,,2013-05-22 06:32:00,
2013-05-21 23:42:00,45.0,41.0,-100.00,SSE,157,6.0,15.0,86,0.01,,,0.77,1.000000,,2013-05-22 06:42:00,
2013-05-21 23:52:00,45.0,41.0,-100.00,SSE,157,6.0,15.0,86,0.01,,,0.77,1.000000,,2013-05-22 06:52:00,